Time;durP1;ratioP1;P1;durP2;ratioP2;P2;SDS_P1;SDS_P2;PMS_P1;PMS_P2;Temp;Humidity;BMP_temperature;BMP_pressure;BME280_temperature;BME280_humidity;BME280_pressure;Samples;Min_cycle;Max_cycle;Signal;HPM_P1;HPM_P2
2022/02/08 00:01:20;;;;;;;7.47;2.15;;;;;;;-0.15;100.00;97175.31;5033403;28;24442;-74
2022/02/08 00:03:46;;;;;;;8.37;2.90;;;;;;;-0.12;100.00;97186.34;5033305;28;24526;-74
2022/02/08 00:06:28;;;;;;;5.70;1.90;;;;;;;0.15;100.00;97185.56;5037034;28;24443;-74
2022/02/08 00:08:55;;;;;;;12.53;2.83;;;;;;;0.16;100.00;97184.69;5053149;28;24426;-74
2022/02/08 00:11:21;;;;;;;5.88;2.17;;;;;;;0.18;100.00;97192.31;5040231;28;24436;-73
2022/02/08 00:13:48;;;;;;;9.75;2.92;;;;;;;0.31;100.00;97196.59;5049541;28;24454;-73
2022/02/08 00:16:14;;;;;;;7.47;2.22;;;;;;;0.21;100.00;97190.63;5052791;28;24418;-73
2022/02/08 00:18:42;;;;;;;7.65;2.38;;;;;;;0.00;100.00;97193.19;5052933;28;24481;-75
2022/02/08 00:21:09;;;;;;;6.03;1.92;;;;;;;-0.07;100.00;97199.94;5052691;28;24454;-75
2022/02/08 00:23:35;;;;;;;7.65;2.67;;;;;;;-0.06;100.00;97199.09;5034475;28;24458;-76
2022/02/08 00:26:02;;;;;;;4.32;1.50;;;;;;;-0.05;100.00;97199.94;5038246;28;24988;-74
2022/02/08 00:28:29;;;;;;;7.73;2.50;;;;;;;-0.01;100.00;97199.94;5042922;28;24440;-74
2022/02/08 00:30:55;;;;;;;6.10;2.08;;;;;;;0.19;100.00;97196.59;5033031;28;24424;-74
2022/02/08 00:33:21;;;;;;;8.02;2.20;;;;;;;0.08;100.00;97201.69;5032355;28;24988;-74
2022/02/08 00:35:49;;;;;;;9.57;2.47;;;;;;;0.00;100.00;97198.28;5038383;28;24490;-74
2022/02/08 00:38:17;;;;;;;6.65;2.13;;;;;;;0.02;100.00;97196.56;5044758;28;24999;-75
2022/02/08 00:40:46;;;;;;;8.50;2.15;;;;;;;-0.01;100.00;97194.00;5032460;28;24439;-75
2022/02/08 00:43:13;;;;;;;8.53;2.47;;;;;;;0.08;100.00;97199.13;5046810;28;24522;-74
2022/02/08 00:45:50;;;;;;;9.25;2.50;;;;;;;0.09;100.00;97197.44;5034817;28;24435;-75
2022/02/08 00:48:25;;;;;;;6.40;2.17;;;;;;;0.08;100.00;97198.28;5033349;28;24440;-76
2022/02/08 00:50:53;;;;;;;7.70;2.93;;;;;;;0.00;100.00;97195.72;5032720;28;24467;-74
2022/02/08 00:53:20;;;;;;;6.55;2.35;;;;;;;0.03;100.00;97200.78;5046454;28;25020;-74
2022/02/08 00:55:47;;;;;;;10.65;2.63;;;;;;;0.09;100.00;97197.44;5035286;28;24435;-74
2022/02/08 00:58:13;;;;;;;9.52;2.55;;;;;;;0.02;100.00;97199.09;5048443;28;24431;-74
2022/02/08 01:00:40;;;;;;;6.18;2.42;;;;;;;0.11;100.00;97205.91;5032269;28;24432;-74
2022/02/08 01:03:09;;;;;;;7.25;2.33;;;;;;;0.03;100.00;97205.03;5040985;28;24431;-74
2022/02/08 01:05:41;;;;;;;7.17;2.57;;;;;;;0.05;100.00;97203.38;5051062;28;24569;-74
2022/02/08 01:08:09;;;;;;;8.90;2.55;;;;;;;0.08;100.00;97204.22;5032698;28;24543;-74
2022/02/08 01:10:37;;;;;;;7.25;2.40;;;;;;;-0.06;100.00;97201.66;5032126;28;24435;-74
2022/02/08 01:13:04;;;;;;;9.02;2.42;;;;;;;-0.14;100.00;97215.22;5037476;28;24435;-74
2022/02/08 01:15:31;;;;;;;6.28;2.30;;;;;;;-0.10;100.00;97207.59;5037720;28;25059;-76
2022/02/08 01:17:59;;;;;;;8.85;2.50;;;;;;;-0.11;100.00;97207.56;5031648;28;24423;-75
2022/02/08 01:20:31;;;;;;;7.38;2.40;;;;;;;-0.15;100.00;97214.38;5044439;28;24524;-76
2022/02/08 01:22:58;;;;;;;9.80;2.57;;;;;;;-0.22;100.00;97209.22;5038306;28;24954;-75
2022/02/08 01:25:30;;;;;;;11.47;2.57;;;;;;;-0.37;100.00;97215.13;5031474;28;24474;-75
2022/02/08 01:28:06;;;;;;;10.93;2.55;;;;;;;-0.36;100.00;97217.69;5031460;28;24864;-74
2022/02/08 01:30:44;;;;;;;10.50;2.58;;;;;;;-0.38;100.00;97221.91;5032045;28;24531;-76
2022/02/08 01:33:37;;;;;;;10.75;2.47;;;;;;;-0.35;100.00;97219.38;5045108;28;24459;-76
2022/02/08 01:36:26;;;;;;;5.03;2.22;;;;;;;-0.32;100.00;97216.84;5031520;28;24454;-74
2022/02/08 01:38:58;;;;;;;7.68;2.45;;;;;;;-0.41;100.00;97221.06;5032485;28;24521;-75
2022/02/08 01:41:40;;;;;;;6.25;2.50;;;;;;;-0.45;100.00;97225.28;5031359;28;24809;-76
2022/02/08 01:44:21;;;;;;;5.55;2.25;;;;;;;-0.43;100.00;97230.41;5031191;28;24468;-76
2022/02/08 01:47:00;;;;;;;5.05;2.42;;;;;;;-0.35;100.00;97226.19;5043183;28;24467;-76
2022/02/08 01:49:37;;;;;;;7.82;2.88;;;;;;;-0.38;100.00;97234.66;5035725;28;24446;-75
2022/02/08 01:52:05;;;;;;;5.57;2.50;;;;;;;-0.40;100.00;97233.81;5035900;28;24450;-74
2022/02/08 01:54:31;;;;;;;6.65;2.42;;;;;;;-0.41;100.00;97216.81;5031328;28;24797;-73
2022/02/08 01:57:00;;;;;;;5.07;2.38;;;;;;;-0.39;100.00;97210.03;5031099;28;24953;-74
2022/02/08 01:59:27;;;;;;;5.70;2.25;;;;;;;-0.34;100.00;97205.81;5044923;28;24435;-74
2022/02/08 02:01:54;;;;;;;13.57;2.85;;;;;;;-0.44;100.00;97204.09;5050701;28;24451;-74
2022/02/08 02:04:20;;;;;;;4.60;2.07;;;;;;;-0.43;100.00;97202.41;5050714;28;24481;-74
2022/02/08 02:06:47;;;;;;;11.55;2.05;;;;;;;-0.34;100.00;97199.88;5050777;28;24445;-74
2022/02/08 02:09:14;;;;;;;6.82;2.63;;;;;;;-0.40;100.00;97210.06;5050406;28;24423;-74
2022/02/08 02:11:40;;;;;;;9.50;2.50;;;;;;;-0.52;100.00;97215.94;5048901;28;24432;-74
2022/02/08 02:14:08;;;;;;;6.43;2.43;;;;;;;-0.52;100.00;97213.38;5030970;28;24435;-74
2022/02/08 02:16:46;;;;;;;5.47;2.22;;;;;;;-0.54;100.00;97208.31;5039411;28;24431;-74
2022/02/08 02:19:12;;;;;;;6.50;2.40;;;;;;;-0.47;100.00;97204.09;5050327;28;24439;-74
2022/02/08 02:21:39;;;;;;;5.63;2.20;;;;;;;-0.36;100.00;97210.06;5033690;28;24459;-74
2022/02/08 02:24:07;;;;;;;5.57;2.13;;;;;;;-0.28;100.00;97210.09;5048917;28;24438;-74
2022/02/08 02:26:34;;;;;;;5.32;2.25;;;;;;;-0.24;100.00;97206.69;5030644;28;24489;-74
2022/02/08 02:29:01;;;;;;;10.05;2.60;;;;;;;-0.32;100.00;97213.47;5030843;28;24502;-74
2022/02/08 02:31:27;;;;;;;5.28;2.08;;;;;;;-0.32;100.00;97201.59;5046569;28;24836;-74
2022/02/08 02:33:54;;;;;;;5.50;1.92;;;;;;;-0.39;100.00;97206.66;5046706;28;25007;-74
2022/02/08 02:36:20;;;;;;;6.03;2.20;;;;;;;-0.39;100.00;97202.41;5037607;28;24435;-74
2022/02/08 02:38:47;;;;;;;6.43;2.40;;;;;;;-0.41;100.00;97204.09;5040280;28;24443;-76
2022/02/08 02:41:15;;;;;;;9.88;2.88;;;;;;;-0.51;100.00;97203.22;5030270;28;24439;-76
2022/02/08 02:43:43;;;;;;;5.20;2.58;;;;;;;-0.43;100.00;97205.78;5031531;28;24443;-76
2022/02/08 02:46:10;;;;;;;5.22;2.67;;;;;;;-0.52;100.00;97206.63;5034917;28;24435;-75
2022/02/08 02:48:36;;;;;;;5.25;2.33;;;;;;;-0.61;100.00;97200.63;5049692;28;24435;-75
2022/02/08 02:51:02;;;;;;;8.43;2.47;;;;;;;-0.60;100.00;97202.31;5048519;28;24442;-75
2022/02/08 02:53:30;;;;;;;6.25;2.47;;;;;;;-0.74;100.00;97210.78;5031354;28;24435;-76
2022/02/08 02:55:57;;;;;;;5.78;2.30;;;;;;;-0.78;100.00;97210.72;5035922;28;24435;-76
2022/02/08 02:58:29;;;;;;;5.30;2.55;;;;;;;-0.79;100.00;97207.34;5041645;28;24443;-76
2022/02/08 03:01:11;;;;;;;5.50;2.00;;;;;;;-0.75;100.00;97211.59;5030348;28;24439;-76
2022/02/08 03:03:50;;;;;;;6.25;2.35;;;;;;;-0.67;100.00;97198.91;5031017;28;24993;-76
2022/02/08 03:19:59;;;;;;;7.10;2.20;;;;;;;-0.83;100.00;97204.78;5050278;28;24484;-74
2022/02/08 03:22:26;;;;;;;8.98;2.03;;;;;;;-0.85;100.00;97206.47;5048340;28;24459;-74
2022/02/08 03:24:52;;;;;;;5.50;2.30;;;;;;;-0.87;100.00;97209.00;5033955;28;24438;-75
2022/02/08 03:27:19;;;;;;;7.40;2.60;;;;;;;-0.92;100.00;97208.13;5033775;28;24993;-74
2022/02/08 03:29:47;;;;;;;4.78;2.00;;;;;;;-0.91;100.00;97206.44;5033741;28;25075;-74
2022/02/08 03:32:15;;;;;;;7.28;2.42;;;;;;;-0.94;100.00;97208.97;5053347;28;24848;-74
2022/02/08 03:34:41;;;;;;;3.83;2.28;;;;;;;-0.87;100.00;97219.16;5049669;28;24451;-75
2022/02/08 03:37:07;;;;;;;7.53;2.33;;;;;;;-0.86;100.00;97223.41;5042213;28;24989;-74
2022/02/08 03:39:37;;;;;;;6.47;2.30;;;;;;;-0.89;100.00;97220.88;5045693;28;24427;-74
2022/02/08 03:42:09;;;;;;;6.60;2.30;;;;;;;-0.92;100.00;97227.63;5034603;28;24554;-74
2022/02/08 03:44:36;;;;;;;5.43;2.10;;;;;;;-0.85;100.00;97225.13;5033560;28;24449;-75
2022/02/08 03:47:06;;;;;;;7.93;2.30;;;;;;;-0.84;100.00;97223.44;5042597;28;24852;-75
2022/02/08 03:49:33;;;;;;;8.68;2.55;;;;;;;-0.79;100.00;97220.06;5039643;28;24435;-75
2022/02/08 03:52:04;;;;;;;4.78;2.00;;;;;;;-0.83;100.00;97223.44;5048674;28;25020;-75
2022/02/08 03:54:31;;;;;;;5.22;2.00;;;;;;;-0.81;100.00;97219.22;5038248;28;24432;-76
2022/02/08 03:56:58;;;;;;;5.63;2.20;;;;;;;-0.75;100.00;97219.22;5052677;28;24943;-74
2022/02/08 03:59:24;;;;;;;6.07;2.25;;;;;;;-0.75;100.00;97228.56;5040779;28;24436;-74
2022/02/08 04:04:48;;;;;;;6.45;2.40;;;;;;;-0.73;100.00;97230.28;5044393;28;24422;-74
2022/02/08 04:07:18;;;;;;;4.93;2.22;;;;;;;-0.82;100.00;97227.66;5034065;28;24470;-74
2022/02/08 04:09:45;;;;;;;5.88;2.35;;;;;;;-0.89;100.00;97236.13;5047585;28;24431;-75
2022/02/08 04:12:18;;;;;;;6.65;2.28;;;;;;;-0.98;100.00;97228.44;5050119;28;24443;-74
2022/02/08 04:14:50;;;;;;;10.63;2.50;;;;;;;-0.92;100.00;97230.19;5033283;28;24466;-74
2022/02/08 04:17:29;;;;;;;8.10;2.67;;;;;;;-0.98;100.00;97228.44;5032539;28;25007;-74
2022/02/08 04:31:23;;;;;;;5.80;2.10;;;;;;;-0.99;100.00;97229.28;5037371;28;24478;-74
2022/02/08 04:31:37;;;;;;;5.72;2.20;;;;;;;-1.07;100.00;97221.63;5042661;28;24478;-74
2022/02/08 04:34:24;;;;;;;6.43;2.60;;;;;;;-1.09;100.00;97219.91;5048248;28;24485;-75
2022/02/08 04:39:55;;;;;;;9.23;2.67;;;;;;;-1.12;100.00;97230.88;4976420;28;24436;-76
2022/02/08 04:42:28;;;;;;;5.80;2.43;;;;;;;-1.00;100.00;97230.13;5033152;28;24559;-75
2022/02/08 04:45:06;;;;;;;9.20;2.83;;;;;;;-1.00;100.00;97236.06;5051893;28;24443;-72
2022/02/08 04:47:37;;;;;;;9.43;2.70;;;;;;;-0.93;100.00;97236.94;5036985;28;24440;-76
2022/02/08 04:50:04;;;;;;;8.93;2.55;;;;;;;-0.84;100.00;97241.25;5032781;28;24513;-75
2022/02/08 04:52:33;;;;;;;7.30;2.53;;;;;;;-0.84;100.00;97228.53;5033789;28;24490;-74
2022/02/08 04:55:16;;;;;;;6.07;2.63;;;;;;;-0.87;100.00;97234.44;5051790;28;24497;-74
2022/02/08 04:57:48;;;;;;;4.30;2.30;;;;;;;-0.75;100.00;97231.94;5040776;28;24794;-75
2022/02/08 05:00:22;;;;;;;8.27;2.83;;;;;;;-0.70;100.00;97228.56;5038911;28;25023;-75
2022/02/08 05:35:47;;;;;;;7.03;2.87;;;;;;;-0.64;100.00;97211.63;5035440;28;24505;-74
2022/02/08 05:44:02;;;;;;;8.60;2.90;;;;;;;-0.60;100.00;97203.19;5045714;28;24465;-72
2022/02/08 05:46:49;;;;;;;8.48;2.83;;;;;;;-0.59;100.00;97212.53;5041636;28;24439;-72
2022/02/08 05:49:24;;;;;;;11.90;2.85;;;;;;;-0.60;100.00;97215.91;5039547;28;24582;-73
2022/02/08 05:54:34;;;;;;;7.63;2.80;;;;;;;-0.51;100.00;97207.47;5036141;28;24467;-72
2022/02/08 05:57:03;;;;;;;7.88;2.53;;;;;;;-0.52;100.00;97213.38;5051072;28;24426;-73
2022/02/08 05:59:29;;;;;;;8.55;2.45;;;;;;;-0.51;100.00;97212.56;5030964;28;24427;-74
2022/02/08 06:01:55;;;;;;;8.32;2.47;;;;;;;-0.47;100.00;97211.72;5032117;28;24443;-73
2022/02/08 06:04:22;;;;;;;11.73;2.75;;;;;;;-0.48;100.00;97210.03;5044508;28;24443;-75
2022/02/08 06:06:48;;;;;;;8.38;2.70;;;;;;;-0.47;100.00;97210.88;5030810;28;24465;-75
2022/02/08 06:09:15;;;;;;;8.10;2.47;;;;;;;-0.50;100.00;97215.09;5040797;28;24442;-75
2022/02/08 06:11:42;;;;;;;9.57;2.43;;;;;;;-0.49;100.00;97215.94;5050627;28;25027;-74
2022/02/08 06:14:09;;;;;;;7.13;2.55;;;;;;;-0.46;100.00;97215.97;5033716;28;24432;-74
2022/02/08 06:16:36;;;;;;;8.05;2.40;;;;;;;-0.39;100.00;97224.47;5035326;28;24434;-74
2022/02/08 06:19:05;;;;;;;7.47;2.88;;;;;;;-0.36;100.00;97229.59;5042432;28;24436;-75
2022/02/08 06:21:32;;;;;;;8.38;2.83;;;;;;;-0.34;100.00;97230.41;5047111;28;24508;-74
2022/02/08 06:23:58;;;;;;;7.55;2.88;;;;;;;-0.36;100.00;97227.88;5034739;28;24479;-73
2022/02/08 06:26:25;;;;;;;5.20;2.42;;;;;;;-0.23;100.00;97227.91;5043623;28;24439;-74
2022/02/08 06:29:03;;;;;;;7.18;2.83;;;;;;;-0.27;100.00;97227.06;5030466;28;24440;-73
2022/02/08 06:31:31;;;;;;;7.03;2.73;;;;;;;-0.31;100.00;97227.88;5030536;28;24964;-75
2022/02/08 06:33:57;;;;;;;9.63;2.75;;;;;;;-0.32;100.00;97232.13;5031851;28;24475;-75
2022/02/08 06:36:24;;;;;;;7.72;2.97;;;;;;;-0.26;100.00;97237.25;5030720;28;24423;-73
2022/02/08 06:38:50;;;;;;;8.80;2.95;;;;;;;-0.29;100.00;97232.16;5040339;28;24442;-75
2022/02/08 06:41:17;;;;;;;12.73;3.13;;;;;;;-0.27;100.00;97229.59;5036750;28;24525;-74
2022/02/08 06:43:44;;;;;;;7.83;2.67;;;;;;;-0.25;100.00;97233.00;5034009;28;24512;-75
2022/02/08 06:46:10;;;;;;;7.82;3.25;;;;;;;-0.24;100.00;97229.59;5049559;28;24436;-76
2022/02/08 06:48:39;;;;;;;10.05;3.47;;;;;;;-0.23;100.00;97218.56;5033036;28;24802;-74
2022/02/08 06:51:05;;;;;;;9.07;3.15;;;;;;;-0.23;100.00;97223.66;5043483;28;24481;-74
2022/02/08 06:53:32;;;;;;;11.07;2.88;;;;;;;-0.27;100.00;97221.97;5042635;28;24439;-74
2022/02/08 06:55:59;;;;;;;12.55;3.10;;;;;;;-0.20;100.00;97228.78;5034341;28;24490;-74
2022/02/08 06:58:31;;;;;;;10.90;3.33;;;;;;;-0.25;100.00;97223.66;5049840;28;24857;-74
2022/02/08 07:01:02;;;;;;;5.63;2.50;;;;;;;-0.26;100.00;97227.06;5050734;28;25000;-73
2022/02/08 07:03:30;;;;;;;12.20;2.83;;;;;;;-0.22;100.00;97230.47;5044411;28;24916;-74
2022/02/08 07:05:58;;;;;;;8.32;3.08;;;;;;;-0.29;100.00;97229.59;5036662;28;24793;-74
2022/02/08 07:08:25;;;;;;;8.98;2.60;;;;;;;-0.28;100.00;97236.38;5049082;28;24485;-76
2022/02/08 07:10:51;;;;;;;7.78;3.08;;;;;;;-0.31;100.00;97238.06;5053990;28;24423;-77
2022/02/08 07:13:17;;;;;;;8.15;2.65;;;;;;;-0.26;100.00;97231.28;5054292;28;24843;-78
2022/02/08 07:15:44;;;;;;;8.05;2.95;;;;;;;-0.29;100.00;97231.31;5048882;28;24980;-78
2022/02/08 07:18:10;;;;;;;7.97;2.83;;;;;;;-0.29;100.00;97229.59;5034135;28;24809;-73
2022/02/08 07:20:38;;;;;;;7.28;2.97;;;;;;;-0.26;100.00;97234.72;5044893;28;24431;-77
2022/02/08 07:23:06;;;;;;;8.07;3.15;;;;;;;-0.21;100.00;97236.41;5043938;28;25043;-77
2022/02/08 07:25:33;;;;;;;9.55;3.10;;;;;;;-0.22;100.00;97233.03;5054912;28;24999;-77
2022/02/08 07:27:59;;;;;;;10.93;3.10;;;;;;;-0.20;100.00;97233.00;5036562;28;24443;-77
2022/02/08 07:30:29;;;;;;;8.70;2.70;;;;;;;-0.13;100.00;97227.09;5035930;28;24509;-77
2022/02/08 07:32:55;;;;;;;12.27;2.83;;;;;;;-0.14;100.00;97228.78;5036501;28;24856;-77
2022/02/08 07:35:29;;;;;;;10.25;3.00;;;;;;;-0.18;100.00;97222.00;5034479;28;24420;-77
2022/02/08 07:38:03;;;;;;;10.18;3.05;;;;;;;-0.13;100.00;97237.28;5034138;28;24424;-77
2022/02/08 07:41:35;;;;;;;10.77;3.03;;;;;;;-0.16;100.00;97242.38;5034315;28;24435;-76
2022/02/08 07:43:28;;;;;;;7.85;2.97;;;;;;;0.14;100.00;97232.22;5033382;28;24482;-76
2022/02/08 07:45:56;;;;;;;10.48;3.63;;;;;;;0.38;100.00;97238.22;5033976;28;24447;-77
2022/02/08 07:48:22;;;;;;;6.60;2.88;;;;;;;0.64;100.00;97231.44;5035160;28;24442;-77
2022/02/08 07:50:51;;;;;;;9.23;3.60;;;;;;;0.72;100.00;97233.97;5053426;28;24467;-78
2022/02/08 07:53:19;;;;;;;10.93;3.10;;;;;;;0.75;100.00;97236.53;5053372;28;24433;-77
2022/02/08 07:55:47;;;;;;;9.65;3.35;;;;;;;0.72;100.00;97239.91;5053612;28;24839;-77
2022/02/08 07:58:13;;;;;;;12.17;3.90;;;;;;;1.06;100.00;97233.91;5053367;28;24428;-78
2022/02/08 08:00:40;;;;;;;12.05;5.13;;;;;;;1.10;100.00;97236.47;5037461;28;24451;-77
2022/02/08 08:03:07;;;;;;;8.45;3.63;;;;;;;1.21;100.00;97241.53;5033371;28;24539;-77
2022/02/08 08:05:33;;;;;;;8.98;2.65;;;;;;;1.04;100.00;97239.03;5034498;28;24423;-78
2022/02/08 08:08:00;;;;;;;8.52;2.97;;;;;;;1.11;100.00;97238.19;5048192;28;24805;-77
2022/02/08 08:10:30;;;;;;;6.40;2.90;;;;;;;1.52;100.00;97234.66;5033988;28;24541;-77
2022/02/08 08:13:01;;;;;;;6.97;3.08;;;;;;;1.62;100.00;97236.28;5046381;28;24450;-77
2022/02/08 08:15:37;;;;;;;11.02;3.38;;;;;;;1.69;100.00;97232.00;5045269;28;24431;-76
2022/02/08 08:18:18;;;;;;;7.53;3.03;;;;;;;1.93;100.00;97231.06;5033459;28;24471;-76
2022/02/08 08:20:45;;;;;;;11.93;3.60;;;;;;;1.98;100.00;97228.47;5044535;28;24470;-77
2022/02/08 08:23:11;;;;;;;8.77;3.70;;;;;;;2.15;100.00;97236.88;5053769;28;24470;-78
2022/02/08 08:25:37;;;;;;;11.77;3.97;;;;;;;1.86;100.00;97231.94;5041191;28;24467;-79
2022/02/08 08:28:06;;;;;;;10.57;3.45;;;;;;;1.80;100.00;97220.03;5032646;28;24470;-77
2022/02/08 08:30:32;;;;;;;9.90;3.50;;;;;;;1.82;100.00;97223.44;5032658;28;24439;-77
2022/02/08 08:32:59;;;;;;;8.23;3.45;;;;;;;1.84;100.00;97223.44;5033074;28;24435;-77
2022/02/08 08:35:26;;;;;;;11.88;4.03;;;;;;;1.86;100.00;97226.84;5032908;28;24464;-77
2022/02/08 08:37:59;;;;;;;7.88;3.47;;;;;;;2.14;100.00;97225.78;5049330;28;24442;-77
2022/02/08 08:40:40;;;;;;;8.35;3.20;;;;;;;2.48;100.00;97224.72;5038059;28;24534;-76
2022/02/08 08:43:30;;;;;;;9.70;3.63;;;;;;;2.61;100.00;97222.06;5051525;28;24451;-77
2022/02/08 08:49:01;;;;;;;10.83;3.60;;;;;;;2.65;100.00;97221.16;5048994;28;24461;-76
2022/02/08 08:51:34;;;;;;;10.05;3.05;;;;;;;2.66;100.00;97219.47;5037385;28;24806;-78
2022/02/08 08:54:04;;;;;;;8.80;3.20;;;;;;;2.86;100.00;97217.59;5046383;28;24436;-77
2022/02/08 08:56:31;;;;;;;8.20;2.95;;;;;;;2.64;100.00;97232.28;5048146;28;24439;-77
2022/02/08 08:58:59;;;;;;;12.75;3.58;;;;;;;2.72;100.00;97226.25;5034750;28;24443;-77
2022/02/08 09:01:26;;;;;;;10.13;3.35;;;;;;;2.83;100.00;97229.56;5047133;28;24805;-77
2022/02/08 09:03:52;;;;;;;8.23;3.20;;;;;;;3.09;100.00;97224.19;5042762;28;24443;-77
2022/02/08 09:06:19;;;;;;;8.05;3.08;;;;;;;3.15;100.00;97227.53;5040356;28;24885;-77
2022/02/08 09:08:45;;;;;;;8.60;3.15;;;;;;;3.53;100.00;97225.41;5048905;28;24502;-78
2022/02/08 09:11:17;;;;;;;6.40;2.78;;;;;;;3.50;100.00;97222.91;5050064;28;24553;-77
2022/02/08 09:13:49;;;;;;;12.45;4.45;;;;;;;3.43;100.00;97222.09;5056003;28;24434;-77
2022/02/08 09:16:27;;;;;;;16.08;7.57;;;;;;;3.73;100.00;97225.16;5047737;28;24431;-78
2022/02/08 09:21:59;;;;;;;13.32;3.33;;;;;;;3.85;100.00;97219.88;5056008;28;24492;-77
2022/02/08 09:24:53;;;;;;;14.23;3.20;;;;;;;3.92;100.00;97212.97;5054847;28;24505;-77
2022/02/08 09:30:14;;;;;;;7.72;3.10;;;;;;;4.24;100.00;97209.97;5035608;28;24948;-77
2022/02/08 09:32:45;;;;;;;7.78;3.22;;;;;;;4.38;100.00;97205.47;5051294;28;24981;-78
2022/02/08 09:35:14;;;;;;;10.50;3.40;;;;;;;4.55;100.00;97211.16;5035807;28;24466;-77
2022/02/08 09:37:41;;;;;;;8.00;3.35;;;;;;;4.74;100.00;97201.44;5033492;28;24434;-76
2022/02/08 09:40:10;;;;;;;10.73;3.20;;;;;;;4.98;100.00;97205.31;5049839;28;24434;-77
2022/02/08 09:42:38;;;;;;;8.77;2.95;;;;;;;4.91;100.00;97211.44;5054895;28;24435;-77
2022/02/08 09:45:08;;;;;;;12.10;3.13;;;;;;;5.02;100.00;97211.25;5053941;28;24476;-77
2022/02/08 09:47:40;;;;;;;19.90;2.97;;;;;;;5.03;100.00;97210.38;5034396;28;24435;-77
2022/02/08 09:50:16;;;;;;;10.52;2.60;;;;;;;5.22;98.75;97213.44;5048917;28;24518;-77
2022/02/08 09:52:47;;;;;;;8.60;2.63;;;;;;;5.48;100.00;97206.06;5051941;28;24422;-77
2022/02/08 09:55:14;;;;;;;16.42;3.25;;;;;;;5.34;100.00;97208.09;5052041;28;24522;-77
2022/02/08 09:57:41;;;;;;;9.48;3.17;;;;;;;5.31;99.16;97205.59;5052496;28;24522;-77
2022/02/08 10:00:10;;;;;;;8.93;2.92;;;;;;;5.47;99.61;97214.66;5052493;28;24419;-77
2022/02/08 10:02:37;;;;;;;7.03;2.55;;;;;;;5.53;99.21;97203.44;5032129;28;24435;-78
2022/02/08 10:05:07;;;;;;;9.65;2.85;;;;;;;5.66;98.61;97204.03;5032927;28;24502;-78
2022/02/08 10:07:36;;;;;;;10.73;2.83;;;;;;;5.89;100.00;97200.97;5033177;28;24428;-78
2022/02/08 10:10:05;;;;;;;7.32;2.45;;;;;;;6.10;98.41;97207.41;5032528;28;24463;-77
2022/02/08 10:13:12;;;;;;;7.43;2.58;;;;;;;6.27;96.08;97201.03;5032138;28;24464;-77
2022/02/08 10:23:58;;;;;;;6.47;2.22;;;;;;;6.36;96.22;97206.81;5051522;28;24462;-79
2022/02/08 10:26:32;;;;;;;6.28;2.30;;;;;;;6.59;95.28;97207.13;5051770;28;24411;-78
2022/02/08 10:29:02;;;;;;;6.20;2.28;;;;;;;6.32;95.90;97207.78;5051236;28;24534;-77
2022/02/08 10:40:01;;;;;;;5.95;1.80;;;;;;;6.51;98.40;97225.31;5051073;28;24434;-78
2022/02/08 10:42:29;;;;;;;8.35;2.25;;;;;;;6.48;98.03;97221.97;5052234;28;24431;-78
2022/02/08 10:44:56;;;;;;;4.45;1.95;;;;;;;6.48;98.62;97222.81;5052040;28;25059;-78
2022/02/08 10:47:33;;;;;;;5.57;1.90;;;;;;;6.72;97.80;97221.41;5051451;28;24431;-78
2022/02/08 10:50:00;;;;;;;8.13;2.10;;;;;;;6.84;100.00;97215.09;5051698;28;24414;-78
2022/02/08 10:52:28;;;;;;;7.47;1.95;;;;;;;6.98;98.89;97213.03;5053507;28;24430;-78
2022/02/08 10:54:58;;;;;;;6.85;2.05;;;;;;;6.91;99.53;97215.81;5052839;28;20798;-79
2022/02/08 10:57:33;;;;;;;5.43;2.10;;;;;;;6.99;100.00;97219.03;5051885;28;24514;-77
2022/02/08 11:00:04;;;;;;;6.32;1.90;;;;;;;6.92;100.00;97212.34;5051722;28;24477;-78
2022/02/08 11:02:36;;;;;;;4.00;1.77;;;;;;;6.95;100.00;97209.69;5052302;28;24524;-79
2022/02/08 11:05:18;;;;;;;4.72;2.03;;;;;;;7.11;100.00;97202.41;5052442;28;20820;-77
2022/02/08 11:08:17;;;;;;;3.72;1.40;;;;;;;6.88;100.00;97208.16;5051862;28;24817;-79
2022/02/08 11:10:59;;;;;;;12.25;1.80;;;;;;;6.96;100.00;97208.78;5055134;28;20784;-78
2022/02/08 11:13:40;;;;;;;5.25;1.67;;;;;;;6.62;100.00;97207.06;5057966;28;24489;-79
2022/02/08 11:16:20;;;;;;;4.57;1.85;;;;;;;6.64;100.00;97215.59;5044889;28;20735;-78
2022/02/08 11:19:11;;;;;;;4.35;1.52;;;;;;;6.48;100.00;97202.22;5049708;28;20801;-80
2022/02/08 11:21:49;;;;;;;4.63;1.58;;;;;;;6.38;100.00;97199.91;5052322;28;24426;-78
2022/02/08 11:24:24;;;;;;;7.25;1.65;;;;;;;6.20;100.00;97199.47;5052394;28;24467;-78
2022/02/08 11:26:56;;;;;;;6.45;2.35;;;;;;;6.18;100.00;97208.09;5030406;28;24430;-78
2022/02/08 11:29:28;;;;;;;6.40;1.83;;;;;;;6.06;100.00;97214.34;5030657;28;24443;-78
2022/02/08 11:32:01;;;;;;;6.25;2.47;;;;;;;6.12;100.00;97211.66;5030775;28;24525;-77
2022/02/08 11:43:32;;;;;;;6.38;2.20;;;;;;;6.26;100.00;97204.44;5035786;28;24462;-78
2022/02/08 11:46:19;;;;;;;6.30;2.00;;;;;;;6.41;100.00;97210.13;5033687;28;21217;-77
2022/02/08 11:51:57;;;;;;;7.60;2.60;;;;;;;6.53;100.00;97215.00;5032382;28;24447;-77
2022/02/08 11:54:44;;;;;;;8.07;2.28;;;;;;;6.37;100.00;97214.50;5033826;28;24470;-77
2022/02/08 11:57:40;;;;;;;7.77;2.37;;;;;;;6.14;100.00;97209.03;5033143;28;24436;-76
2022/02/08 12:00:16;;;;;;;14.70;2.72;;;;;;;6.09;100.00;97203.16;5032982;28;24436;-77
2022/02/08 12:02:58;;;;;;;8.32;2.10;;;;;;;6.18;100.00;97201.22;5032983;28;24975;-76
2022/02/08 12:05:36;;;;;;;6.85;2.38;;;;;;;6.16;100.00;97195.28;5033183;28;25030;-77
2022/02/08 12:08:12;;;;;;;11.27;2.42;;;;;;;6.18;100.00;97203.78;5033397;28;24976;-78
2022/02/08 12:10:43;;;;;;;6.47;1.90;;;;;;;6.21;100.00;97195.16;5032861;28;24430;-78
2022/02/08 12:13:28;;;;;;;5.43;2.10;;;;;;;5.98;100.00;97199.09;5033257;28;24430;-78
2022/02/08 12:33:29;;;;;;;7.75;2.55;;;;;;;6.51;100.00;97186.72;5108511;27;24397;-77
2022/02/08 12:36:14;;;;;;;8.43;2.35;;;;;;;6.42;100.00;97186.09;5108342;28;24796;-76
2022/02/08 13:01:20;;;;;;;5.82;1.90;;;;;;;6.61;100.00;97177.06;5058732;28;24970;-77
2022/02/08 13:03:59;;;;;;;6.72;2.20;;;;;;;6.64;100.00;97181.28;5087646;28;24856;-77
2022/02/08 13:14:24;;;;;;;5.28;2.05;;;;;;;6.57;100.00;97183.16;5092067;28;24426;-78
2022/02/08 14:01:55;;;;;;;6.40;1.80;;;;;;;6.59;100.00;97131.63;5093853;28;24498;-77
2022/02/08 14:07:10;;;;;;;7.43;1.70;;;;;;;6.50;100.00;97137.88;5093231;28;24440;-77
2022/02/08 14:09:50;;;;;;;6.03;1.85;;;;;;;6.46;100.00;97136.25;5093030;28;24508;-77
2022/02/08 14:17:58;;;;;;;5.30;1.52;;;;;;;6.33;100.00;97143.41;5081477;28;21356;-77
2022/02/08 14:23:23;;;;;;;6.50;1.85;;;;;;;6.14;100.00;97149.88;5095318;28;20768;-78
2022/02/08 14:29:01;;;;;;;5.38;1.92;;;;;;;6.12;100.00;97154.19;5113068;28;24422;-78
2022/02/08 14:31:41;;;;;;;5.10;1.52;;;;;;;6.09;100.00;97137.13;5101334;28;24434;-77
2022/02/08 14:34:44;;;;;;;6.22;1.88;;;;;;;6.13;100.00;97138.75;5092514;28;25127;-77
2022/02/08 14:37:31;;;;;;;16.33;1.80;;;;;;;6.09;100.00;97136.28;5092748;28;24525;-78
2022/02/08 15:10:20;;;;;;;8.15;4.25;;;;;;;5.92;100.00;97129.78;5054041;28;24453;-78
2022/02/08 15:12:52;;;;;;;7.20;3.65;;;;;;;5.94;100.00;97130.63;5091634;28;24545;-77
2022/02/08 15:15:27;;;;;;;6.97;2.50;;;;;;;5.92;100.00;97131.47;5091215;28;24433;-79
2022/02/08 15:17:55;;;;;;;7.75;3.80;;;;;;;5.92;100.00;97132.34;5096840;28;24814;-77
2022/02/08 15:20:23;;;;;;;6.32;3.33;;;;;;;5.82;100.00;97125.69;5104511;28;21166;-76
2022/02/08 15:22:50;;;;;;;6.28;2.70;;;;;;;5.83;100.00;97128.25;5093662;28;20824;-76
2022/02/08 15:25:17;;;;;;;4.10;2.30;;;;;;;5.79;100.00;97133.50;5089225;28;24997;-76
2022/02/08 15:27:46;;;;;;;10.93;5.75;;;;;;;5.80;100.00;97132.59;5101649;28;24528;-76
2022/02/08 15:30:13;;;;;;;8.60;5.20;;;;;;;5.83;100.00;97129.97;5100597;28;24815;-77
2022/02/08 15:32:40;;;;;;;12.35;5.72;;;;;;;5.79;100.00;97129.19;5094807;28;24510;-77
2022/02/08 15:35:09;;;;;;;18.30;8.55;;;;;;;5.78;100.00;97129.22;5098980;28;24491;-78
2022/02/08 15:37:36;;;;;;;6.07;3.30;;;;;;;5.78;100.00;97136.91;5095563;28;24445;-77
2022/02/08 15:40:06;;;;;;;8.32;5.13;;;;;;;5.81;100.00;97135.13;5098371;28;24441;-77
2022/02/08 15:42:34;;;;;;;10.10;5.70;;;;;;;5.79;100.00;97130.94;5103881;28;24433;-78
2022/02/08 15:45:06;;;;;;;12.20;7.07;;;;;;;5.80;100.00;97125.75;5103372;28;24430;-78
2022/02/08 15:47:33;;;;;;;7.05;3.55;;;;;;;5.77;100.00;97125.81;5098897;28;24429;-78
2022/02/08 15:50:06;;;;;;;10.85;3.63;;;;;;;5.73;100.00;97129.31;5097393;28;24437;-78
2022/02/08 15:53:00;;;;;;;10.52;4.80;;;;;;;5.73;100.00;97124.19;5097608;28;24547;-78